x

Edisto - 41 Nm Southeast Of Charleston, Sc (41004) Weather Station

11:20pm - Sat 19th Jan 2019 All times are EST. -5 hours from GMT.

  • Wind
    20mph, 25mph gusts
  • Sea Temp 58°f
  • Sea Pressure 1006.7mb
  • Edisto - 41 Nm Southeast Of Charleston, Sc
  • Edisto - 41 Nm Southeast Of Charleston, Sc

More Historic Weather Station data

Upgrade to MSW Pro to gain access to the past 30 days of data for over 8000 Wavebouys and Weather Stations around the globe.

Join

Comparision Forecast

View Surf forecast
   
Sat 01/19 11:20pm  -   -   -  20 25 mph 1006.7mb 58f -
11:10pm  -   -   -  20 25 mph 1006.9mb 57f -
11:00pm  -   -   -  20 27 mph 1007.1mb 58f -
10:50pm 7.5ft 7s 6s 20 25 mph 1007.3mb 57f -
10:40pm 7.5ft  -  6s 18 22 mph 1007.5mb 57f -
10:30pm  -   -   -  18 22 mph 1007.5mb 57f -
10:20pm  -   -   -  20 22 mph 1007.5mb 57f -
10:10pm  -   -   -  20 25 mph 1007.7mb 57f -
10:00pm  -   -   -  20 22 mph 1007.9mb 57f -
9:50pm 5ft 6s 5s 20 22 mph 1007.9mb 57f -
9:40pm  -   -   -  20 25 mph 1008mb 56f -
9:30pm  -   -   -  20 25 mph 1008mb 56f -
9:20pm  -   -   -  20 22 mph 1008mb 56f -
9:10pm  -   -   -  20 22 mph 1008mb 56f -
9:00pm  -   -   -  18 22 mph 1008.2mb 57f -
8:50pm 3ft 5s 4s 18 22 mph 1008.3mb 57f -
8:40pm  -   -   -  18 22 mph 1008.6mb 57f -
8:30pm  -   -   -  16 20 mph 1008.7mb 57f -
8:20pm  -   -   -  18 20 mph 1008.8mb 57f -
8:10pm  -   -   -  18 22 mph 1008.9mb - -
8:00pm  -   -   -  16 18 mph 1009.1mb 57f -
7:50pm 2.5ft 5s 5s 13 18 mph 1009.5mb 58f -
7:40pm  -   -   -  9 11 mph 1009.9mb 59f -
7:30pm  -   -   -  11 13 mph 1009.9mb 60f -
7:20pm  -   -   -  13 18 mph 1009.9mb 59f -
7:10pm  -   -   -  9 13 mph 1010.1mb 59f -
7:00pm  -   -   -  9 11 mph 1010.4mb 60f -
6:50pm 2ft 5s 5s 7 7 mph 1010.6mb 61f -
6:40pm  -   -   -  7 7 mph 1010.8mb 62f -
6:30pm  -   -   -  4 7 mph 1010.8mb 62f -
6:20pm  -   -   -  4 7 mph 1011mb 62f -
6:10pm  -   -   -  4 7 mph 1011.3mb 62f -
6:00pm  -   -   -  7 7 mph 1011.5mb 63f -
5:50pm 1.6ft 8s 5s 7 9 mph 1011.6mb 62f -
5:40pm 1.6ft  -  5s 7 9 mph 1011.6mb 63f -
5:30pm  -   -   -  7 7 mph 1011.8mb 62f -
5:20pm  -   -   -  4 7 mph 1011.9mb 63f -
5:10pm  -   -   -  4 7 mph 1012.1mb 63f -
5:00pm  -   -   -  4 4 mph 1012.4mb 63f -
4:50pm 1.6ft 7s 4s 4 4 mph 1012.4mb 63f -
4:40pm  -   -   -  4 4 mph 1012.5mb 63f -
4:30pm  -   -   -  4 4 mph 1012.6mb - -
4:20pm  -   -   -  2 4 mph 1012.9mb 63f -
4:10pm  -   -   -  2 2 mph 1013mb 62f -
4:00pm  -   -   -  4 4 mph 1013.1mb 62f -
3:50pm 1.6ft 11s 4s 4 4 mph 1013mb 62f -
3:40pm  -   -   -  4 4 mph 1013.4mb 61f -
3:30pm  -   -   -  4 4 mph 1013.6mb 61f -
3:20pm  -   -   -  4 7 mph 1013.8mb 60f -
3:10pm  -   -   -  4 7 mph 1013.9mb 60f -
3:00pm  -   -   -  4 4 mph 1013.8mb 60f -
2:50pm 2ft 11s 4s 4 4 mph 1014mb 59f -
2:40pm  -   -   -  4 4 mph 1014mb 59f -
2:30pm  -   -   -  4 4 mph 1014.3mb 59f -
2:20pm  -   -   -  4 4 mph 1014.4mb 59f -
2:10pm  -   -   -  4 7 mph 1014.6mb 59f -
2:00pm  -   -   -  4 7 mph 1014.9mb 59f -
1:50pm 2ft 8s 4s 4 7 mph 1015.1mb 58f -
1:40pm 2ft  -  4s 4 4 mph 1015.3mb 58f -
1:30pm  -   -   -  4 7 mph 1015.6mb 58f -
1:20pm  -   -   -  4 7 mph 1015.7mb 57f -
1:10pm  -   -   -  4 7 mph 1016mb 57f -
1:00pm  -   -   -  4 7 mph 1016.2mb 57f -
12:50pm 1.6ft 9s 4s 4 4 mph 1016.4mb 57f -
12:40pm  -   -   -  4 4 mph 1016.5mb 57f -
12:30pm  -   -   -  4 7 mph 1016.6mb 57f -
12:20pm  -   -   -  4 7 mph 1016.8mb 56f -
12:10pm  -   -   -  4 7 mph 1017mb 56f -
12:00pm  -   -   -  4 7 mph 1017.1mb 56f -
11:50am 1.3ft 11s 4s 7 7 mph 1017.2mb 56f -
11:40am 1.3ft  -  4s 4 7 mph 1017.6mb 56f -
11:30am  -   -   -  4 4 mph 1017.6mb 56f -
11:20am  -   -   -  2 2 mph 1018mb 56f -
11:10am  -   -   -  2 2 mph 1018.2mb 56f -
11:00am  -   -   -  4 4 mph 1018.2mb 56f -
10:50am 1.6ft 10s 4s 4 7 mph 1018.1mb 56f -
10:40am  -   -   -  4 7 mph 1018.2mb 56f -
10:30am  -   -   -  7 7 mph 1018.1mb 56f -
10:20am  -   -   -  7 9 mph 1018.5mb 56f -
10:10am  -   -   -  7 9 mph 1018.4mb 56f -
10:00am  -   -   -  9 9 mph 1018.6mb 56f -
9:50am 1.3ft  -  4s 9 9 mph 1018.4mb 57f -
9:40am 1.3ft 11s 4s  -  mph - - -
9:30am  -   -   -  9 11 mph 1018.1mb 57f -
9:20am  -   -   -  9 11 mph 1017.9mb 57f -
9:10am  -   -   -  7 9 mph 1018mb 58f -
9:00am  -   -   -  7 9 mph 1018.1mb 58f -
8:50am 1.3ft 10s 5s 9 11 mph 1018mb 59f -
8:40am  -   -   -  11 13 mph 1017.9mb 59f -
8:30am  -   -   -  9 11 mph 1017.9mb 59f -
8:20am  -   -   -  9 11 mph 1017.7mb 62f -
8:10am  -   -   -  9 11 mph 1017.8mb 62f -
8:00am  -   -   -  9 11 mph 1017.9mb - -
7:50am 1.3ft 9s 6s 9 11 mph 1017.8mb - -
7:40am  -   -   -  7 9 mph 1018mb 62f -
7:30am  -   -   -  7 9 mph 1018.1mb 62f -
7:20am  -   -   -  7 9 mph 1018.1mb 62f -
7:10am  -   -   -  7 9 mph 1018mb 63f -
7:00am  -   -   -  7 9 mph 1018.2mb 62f -
6:50am 1ft 11s 7s 7 9 mph 1018.3mb 62f -
6:40am  -   -   -  7 7 mph 1018.2mb 62f -
6:30am  -   -   -  7 7 mph 1018.2mb 62f -
6:20am  -   -   -  4 7 mph 1018.3mb 62f -
6:10am  -   -   -  4 7 mph 1018.3mb 62f -
6:00am  -   -   -  4 7 mph 1018mb 61f -
5:50am 1ft 10s 7s 4 7 mph 1018.2mb 60f -
5:40am  -   -   -  4 7 mph 1018.4mb 60f -
5:30am  -   -   -  4 7 mph 1018.4mb 60f -
5:20am  -   -   -  4 7 mph 1018.6mb 60f -
5:10am  -   -   -  7 9 mph 1018.2mb 60f -
5:00am  -   -   -  7 9 mph 1018.1mb 60f -
4:50am 1ft 10s 6s 7 7 mph 1018.1mb 60f -
4:40am  -   -   -  4 7 mph 1018.1mb 60f -
4:30am  -   -   -  4 7 mph 1018.3mb 60f -
4:20am  -   -   -  4 7 mph 1018.3mb 61f -
4:10am  -   -   -  4 7 mph 1018.4mb - -
4:00am  -   -   -  4 7 mph 1018.5mb 63f -
3:50am 1ft 11s 6s 4 4 mph 1018.7mb 63f -
3:40am  -   -   -  4 4 mph 1018.8mb - -
3:30am  -   -   -  4 4 mph 1018.9mb 63f -
3:20am  -   -   -  4 4 mph 1018.9mb 63f -
3:10am  -   -   -  4 4 mph 1019.1mb 63f -
3:00am  -   -   -  4 4 mph 1019.1mb 63f -
2:50am 1ft 10s 6s 4 4 mph 1019.2mb - -
2:40am 1ft  -  6s 4 4 mph 1019.5mb - -
2:30am  -   -   -  4 4 mph 1019.5mb 63f -
2:20am  -   -   -  4 4 mph 1019.7mb 63f -
2:10am  -   -   -  4 4 mph 1019.8mb 63f -
2:00am  -   -   -  4 4 mph 1019.9mb 63f -
1:50am 1ft  -  5s 4 4 mph 1019.9mb 62f -
1:40am 1ft 10s 5s  -  mph - - -
1:30am  -   -   -  2 2 mph 1020.3mb 63f -
1:20am  -   -   -  2 4 mph 1020.4mb 62f -
1:10am  -   -   -  4 4 mph 1020.4mb 62f -
1:00am  -   -   -  4 4 mph 1020.5mb 61f -
12:50am 1.3ft 10s 5s 4 4 mph 1020.5mb 60f -
12:40am  -   -   -  2 4 mph 1020.6mb 60f -
12:30am  -   -   -  2 4 mph 1020.8mb 60f -
12:20am  -   -   -  2 4 mph 1020.9mb 60f -
12:10am  -   -   -  4 4 mph 1021mb 60f -
12:00am  -   -   -  4 4 mph 1021.1mb 60f -
Fri 01/18 11:50pm 1.3ft 10s 5s 4 4 mph 1021.1mb 59f -
11:40pm  -   -   -  4 7 mph 1021.1mb 59f -
11:30pm  -   -   -  4 7 mph 1021.3mb 59f -
11:20pm  -   -   -  4 7 mph 1021.4mb 59f -
11:10pm  -   -   -  4 7 mph 1021.4mb 59f -
11:00pm  -   -   -  4 4 mph 1021.3mb 59f -
10:50pm 1.3ft 10s 5s 4 7 mph 1021.2mb 59f -
10:40pm  -   -   -  2 4 mph 1021.1mb 59f -
10:30pm  -   -   -  4 4 mph 1021.1mb 58f -
10:20pm  -   -   -  2 4 mph 1020.9mb 58f -
10:10pm  -   -   -  2 4 mph 1020.9mb 58f -
10:00pm  -   -   -  4 4 mph 1021mb 59f -
9:50pm 1.3ft 10s 5s 4 4 mph 1021mb 59f -
9:40pm  -   -   -  4 4 mph 1020.9mb 59f -
9:30pm  -   -   -  4 4 mph 1020.8mb 60f -
9:20pm  -   -   -  4 7 mph 1020.7mb 59f -
9:10pm  -   -   -  4 7 mph 1020.6mb 59f -
9:00pm  -   -   -  7 7 mph 1020.4mb 60f -
8:50pm 1.3ft 10s 5s 4 7 mph 1020.3mb 60f -
8:40pm  -   -   -  4 7 mph 1020.4mb 60f -
8:30pm  -   -   -  4 7 mph 1020.3mb 60f -
8:20pm  -   -   -  4 7 mph 1020.4mb 60f -
8:10pm  -   -   -  2 4 mph 1020.3mb 61f -
8:00pm  -   -   -   -  4 mph 1020.3mb 62f -
7:50pm 1.3ft 10s 4s 2 2 mph 1020.5mb 62f -
7:40pm  -   -   -  2 4 mph 1020.4mb 62f -
7:30pm  -   -   -  4 4 mph 1020.3mb 62f -
7:20pm  -   -   -  4 7 mph 1020.4mb 62f -
7:10pm  -   -   -  4 7 mph 1020.3mb 63f -
7:00pm  -   -   -  4 7 mph 1020mb 63f -
6:50pm 1.6ft 10s 4s 4 7 mph 1020.2mb 63f -
6:40pm 1.6ft  -  4s 4 7 mph 1020.2mb 63f -
6:30pm  -   -   -  4 7 mph 1019.9mb 63f -
6:20pm  -   -   -  7 7 mph 1019.9mb 63f -
6:10pm  -   -   -  7 9 mph 1020mb 63f -
6:00pm  -   -   -  7 9 mph 1019.8mb 63f -
5:50pm 1.6ft 11s 4s 7 9 mph 1019.7mb 63f -
5:40pm  -   -   -  4 7 mph 1019.6mb 62f -
5:30pm  -   -   -  4 7 mph 1019.4mb - -
5:20pm  -   -   -  7 9 mph 1019.4mb 62f -
5:10pm  -   -   -  7 7 mph 1019.6mb 63f -
5:00pm  -   -   -  7 7 mph 1019.6mb 62f -
4:50pm 1.3ft 11s 4s 4 7 mph 1019.5mb 62f -
4:40pm  -   -   -  4 7 mph 1019.3mb 63f -
4:30pm  -   -   -  4 7 mph 1019.3mb - -
4:20pm  -   -   -  4 7 mph 1019.3mb 63f -
4:10pm  -   -   -  4 7 mph 1019.2mb 63f -
4:00pm  -   -   -  4 7 mph 1019.3mb 63f -
3:50pm 1.3ft 10s 5s 7 7 mph 1019.4mb 62f -
3:40pm 1.3ft  -  5s 4 7 mph 1019.4mb 62f -
3:30pm  -   -   -  4 4 mph 1019.4mb 62f -
3:20pm  -   -   -  7 9 mph 1019.4mb 62f -
3:10pm  -   -   -  7 7 mph 1019.5mb 62f -
3:00pm  -   -   -  7 7 mph 1019.5mb 62f -
2:50pm 1.3ft 10s 5s 4 4 mph 1019.5mb 62f -
2:40pm 1.3ft  -  5s 2 4 mph 1019.4mb 63f -
2:30pm  -   -   -  2 2 mph 1019.4mb 63f -
2:20pm  -   -   -  2 4 mph 1019.4mb 63f -
2:10pm  -   -   -  4 4 mph 1019.5mb 63f -
2:00pm  -   -   -  4 4 mph 1019.5mb 63f -
1:50pm 1.3ft 11s 4s 4 4 mph 1019.6mb 63f -
1:40pm  -   -   -  4 4 mph 1019.9mb 63f -
1:30pm  -   -   -  4 4 mph 1020.1mb 63f -
1:20pm  -   -   -  4 4 mph 1020.4mb 63f -
1:10pm  -   -   -  4 4 mph 1020.5mb 62f -
1:00pm  -   -   -  4 4 mph 1020.7mb 61f -
12:50pm 1.3ft 10s 4s 2 4 mph 1020.9mb 60f -
12:40pm  -   -   -  2 4 mph 1021.1mb 60f -
12:30pm  -   -   -  2 4 mph 1021.3mb 60f -
12:20pm  -   -   -  2 4 mph 1021.3mb 60f -
12:10pm  -   -   -  2 4 mph 1021.6mb 60f -
12:00pm  -   -   -  4 4 mph 1021.6mb 60f -
11:50am 1.3ft 10s 5s 4 7 mph 1021.7mb 60f -
11:40am 1.3ft  -  5s 4 7 mph 1022mb 60f -
11:30am  -   -   -  7 7 mph 1022mb 60f -
11:20am  -   -   -  4 7 mph 1022.2mb 60f -
11:10am  -   -   -  4 7 mph 1022.2mb 61f -
11:00am  -   -   -  7 7 mph 1022.4mb 62f -
10:50am 1.3ft 9s 5s 7 7 mph 1022.5mb 61f -
10:40am  -   -   -  7 7 mph 1022.5mb 61f -
10:20am  -   -   -  7 9 mph 1022.4mb 63f -
10:10am  -   -   -  7 9 mph 1022.3mb 63f -
10:00am  -   -   -  7 7 mph 1022.2mb 63f -
9:50am 1.3ft 10s 4s 7 9 mph 1022mb 63f -
9:40am  -   -   -  7 9 mph 1022.1mb 63f -
9:30am  -   -   -  9 9 mph 1021.9mb - -
9:20am  -   -   -  9 11 mph 1021.8mb 63f -
9:10am  -   -   -  7 9 mph 1021.6mb 63f -
9:00am  -   -   -  7 9 mph 1021.5mb 63f -
8:50am 1.6ft 10s 4s 7 9 mph 1021.5mb 63f -
8:40am  -   -   -  7 9 mph 1021.6mb - -
8:30am  -   -   -  7 9 mph 1021.6mb 63f -
8:20am  -   -   -  7 11 mph 1021.6mb 63f -
8:10am  -   -   -  9 11 mph 1021.6mb 63f -
8:00am  -   -   -  11 13 mph 1021.6mb 63f -
7:50am 1.6ft  -  4s 9 11 mph 1021.4mb 63f -
7:40am 1.6ft 8s 4s  -  mph - - -
7:30am  -   -   -  13 16 mph 1021.3mb - -
7:20am  -   -   -  13 18 mph 1021.2mb 60f -
7:10am  -   -   -  13 16 mph 1021.1mb 60f -
7:00am  -   -   -  13 18 mph 1021.1mb 60f -
6:50am 1.3ft 11s 5s 13 16 mph 1021.1mb 61f -
6:40am 1.3ft  -  5s 13 18 mph 1021.1mb 61f -
6:30am  -   -   -  11 13 mph 1021.1mb 61f -
6:20am  -   -   -  9 11 mph 1020.8mb 62f -
6:10am  -   -   -  11 13 mph 1020.8mb 62f -
6:00am  -   -   -  11 13 mph 1020.7mb 62f -
5:50am 1.3ft 11s 7s 11 13 mph 1020.5mb 62f -
5:40am  -   -   -  11 13 mph 1020.6mb 61f -
5:30am  -   -   -  11 13 mph 1020.5mb 61f -
5:20am  -   -   -  11 13 mph 1020.5mb 61f -
5:10am  -   -   -  11 13 mph 1020.5mb 61f -
5:00am  -   -   -  11 13 mph 1020.5mb 61f -
4:50am 1.3ft 11s 6s 11 13 mph 1020.5mb 61f -
4:40am 1.3ft  -  6s 11 11 mph 1020.5mb 61f -
4:30am  -   -   -  9 13 mph 1020.6mb - -
4:20am  -   -   -  9 11 mph 1020.6mb 61f -
4:10am  -   -   -  7 11 mph 1020.8mb 61f -
4:00am  -   -   -  7 9 mph 1020.8mb 61f -
3:50am 1.3ft 11s 6s 7 9 mph 1021mb 62f -
3:40am  -   -   -  7 9 mph 1021.1mb 62f -
3:30am  -   -   -  7 9 mph 1021.2mb 62f -
3:20am  -   -   -  7 9 mph 1021.4mb 61f -
3:10am  -   -   -  4 7 mph 1021.2mb 61f -
3:00am  -   -   -  7 9 mph 1021.2mb 61f -
2:50am 1.3ft 11s 6s 7 9 mph 1021.4mb 61f -
2:40am  -   -   -  7 7 mph 1021.4mb 62f -
2:30am  -   -   -  4 7 mph 1021.5mb 62f -
2:20am  -   -   -  4 7 mph 1021.6mb 61f -
2:10am  -   -   -  4 7 mph 1021.6mb 62f -
2:00am  -   -   -  4 7 mph 1021.6mb 62f -
1:50am 1.6ft 11s 5s 4 4 mph 1021.7mb 62f -
1:40am 1.6ft  -  5s 4 7 mph 1021.7mb 62f -
1:30am  -   -   -  4 7 mph 1021.6mb 62f -
1:20am  -   -   -  4 7 mph 1021.7mb 62f -
1:10am  -   -   -  4 4 mph 1021.8mb 62f -
1:00am  -   -   -  4 4 mph 1021.8mb 62f -
12:50am 1.3ft 11s 5s 4 4 mph 1021.9mb 62f -
12:40am 1.3ft  -  5s 4 7 mph 1022mb 62f -
12:30am  -   -   -  4 7 mph 1022.2mb 62f -
12:20am  -   -   -  7 9 mph 1022.2mb 62f -
12:10am  -   -   -  7 9 mph 1022.3mb 62f -
12:00am  -   -   -  4 7 mph 1022.3mb 62f -
Thu 01/17 11:50pm 1.6ft 8s 5s 7 9 mph 1022.5mb 62f -
11:40pm 1.6ft  -  5s 9 13 mph 1022.6mb 62f -
11:30pm  -   -   -  11 13 mph 1022.8mb - -
11:20pm  -   -   -  11 13 mph 1022.7mb 61f -
11:10pm  -   -   -  9 11 mph 1022.7mb 61f -
11:00pm  -   -   -  9 11 mph 1023mb 62f -
10:50pm 1.3ft 9s 6s 9 11 mph 1023.6mb 62f -
10:40pm  -   -   -  9 13 mph 1023.8mb 62f -
10:30pm  -   -   -  7 9 mph 1023.5mb 62f -
10:20pm  -   -   -  2 7 mph 1023.3mb 62f -
10:10pm  -   -   -  4 7 mph 1023.4mb 63f -
10:00pm  -   -   -  4 7 mph 1023.5mb - -
9:50pm 1.6ft 11s 6s 4 7 mph 1023.6mb 63f -
9:40pm  -   -   -  4 9 mph 1023.5mb 63f -
9:30pm  -   -   -  4 7 mph 1023.5mb 63f -
9:20pm  -   -   -  4 7 mph 1023.5mb 62f -
9:10pm  -   -   -  4 7 mph 1023.5mb 62f -
9:00pm  -   -   -  4 7 mph 1023.5mb 62f -
8:50pm 1.6ft 11s 5s 4 4 mph 1023.2mb 63f -
8:40pm 1.6ft  -  5s 2 4 mph 1023.1mb 63f -
8:30pm  -   -   -  2 4 mph 1022.8mb 63f -
8:20pm  -   -   -   -  2 mph 1022.7mb 62f -
8:10pm  -   -   -  2 4 mph 1022.7mb 62f -
8:00pm  -   -   -  2 4 mph 1022.8mb 61f -
7:50pm 1.6ft 10s 5s  -  2 mph 1022.6mb 61f -
7:40pm  -   -   -   -  2 mph 1022.7mb 61f -
7:30pm  -   -   -   -  2 mph 1022.6mb 61f -
7:20pm  -   -   -  2 4 mph 1022.7mb 61f -
7:10pm  -   -   -  4 4 mph 1022.8mb 62f -
7:00pm  -   -   -  4 7 mph 1022.8mb - -
6:50pm 1.3ft 12s 6s 7 9 mph 1023mb 62f -
6:40pm  -   -   -  7 7 mph 1023mb 62f -
6:30pm  -   -   -  7 9 mph 1022.9mb 62f -
6:20pm  -   -   -  7 11 mph 1022.9mb 62f -
6:10pm  -   -   -  9 11 mph 1022.8mb 62f -
6:00pm  -   -   -  9 11 mph 1022.7mb 62f -
5:50pm 1.6ft 11s 6s 9 11 mph 1022.5mb 62f -
5:40pm 1.6ft  -  6s 7 9 mph 1022.3mb 62f -
5:30pm  -   -   -  7 9 mph 1022.1mb 61f -
5:20pm  -   -   -  7 9 mph 1022.2mb 61f -
5:10pm  -   -   -  7 9 mph 1022.2mb 61f -
5:00pm  -   -   -  9 11 mph 1022.1mb 61f -
4:50pm 1.6ft 12s 5s 9 11 mph 1022.2mb 61f -
4:40pm  -   -   -  9 11 mph 1022.2mb 62f -
4:30pm  -   -   -  9 11 mph 1022.2mb 62f -
4:20pm  -   -   -  7 9 mph 1022.3mb 62f -
4:10pm  -   -   -  7 9 mph 1022.1mb 62f -
4:00pm  -   -   -  4 7 mph 1022.1mb 63f -
3:50pm 1.3ft 11s 5s 4 7 mph 1022.2mb 63f -
3:40pm  -   -   -  4 7 mph 1022.2mb 62f -
3:30pm  -   -   -  7 9 mph 1022.3mb 63f -
3:20pm  -   -   -  7 9 mph 1022.6mb 63f -
3:10pm  -   -   -  7 11 mph 1022.6mb 63f -
3:00pm  -   -   -  7 9 mph 1023mb 63f -
2:50pm 1.3ft 9s 5s 4 7 mph 1023mb 63f -
2:40pm 1.3ft  -  5s 7 9 mph 1023.2mb 63f -
2:30pm  -   -   -  7 9 mph 1023.2mb 63f -
2:20pm  -   -   -  9 11 mph 1023mb 63f -
2:10pm  -   -   -  9 11 mph 1023mb 63f -
2:00pm  -   -   -  9 11 mph 1023.1mb 63f -
1:50pm 1.6ft 12s 5s 7 9 mph 1023.2mb 63f -
1:40pm  -   -   -  4 9 mph 1023.3mb 63f -
1:30pm  -   -   -  4 7 mph 1023.4mb 63f -
1:20pm  -   -   -  4 7 mph 1023.4mb 63f -
1:10pm  -   -   -  7 9 mph 1023.7mb 63f -
1:00pm  -   -   -  4 7 mph 1024mb 62f -
12:50pm 1.3ft 12s 5s 4 7 mph 1024.4mb 62f -
12:40pm  -   -   -  7 9 mph 1024.4mb 62f -
12:30pm  -   -   -  7 11 mph 1024.5mb 62f -
12:20pm  -   -   -  9 11 mph 1025mb 62f -
12:10pm  -   -   -  9 13 mph 1025.2mb 62f -
12:00pm  -   -   -  9 11 mph 1025.4mb 62f -
11:50am 1.3ft 10s 7s 9 11 mph 1025.3mb 62f -
11:40am  -   -   -  9 11 mph 1025.6mb 62f -
11:30am  -   -   -  11 13 mph 1025.8mb 62f -
11:20am  -   -   -  9 11 mph 1026.1mb 62f -
11:10am  -   -   -  9 9 mph 1026.1mb 62f -
11:00am  -   -   -  7 9 mph 1026.3mb 62f -
10:50am 1.3ft 11s 7s 7 9 mph 1026.6mb - -
10:40am  -   -   -  7 9 mph 1026.9mb 62f -
10:30am  -   -   -  7 9 mph 1026.8mb 62f -
10:20am  -   -   -  7 9 mph 1027.2mb 62f -
10:10am  -   -   -  2 4 mph 1027.5mb 62f -
10:00am  -   -   -   -  2 mph 1027mb 62f -
9:50am 1.6ft  -  7s  -  2 mph 1026.2mb - -
9:40am  -   -   -   -  2 mph 1026mb 62f -
9:30am  -   -   -  2 4 mph 1025.8mb 62f -
9:20am  -   -   -  2 4 mph 1025.8mb 62f -
9:10am  -   -   -  2 7 mph 1025.6mb 62f -
9:00am  -   -   -  4 7 mph 1025.5mb 62f -
8:50am 1.6ft 13s 7s 2 7 mph 1025.3mb - -
8:40am  -   -   -  4 7 mph 1025mb 63f -
8:30am  -   -   -  4 7 mph 1024.9mb - -
8:20am  -   -   -  4 7 mph 1024.9mb 63f -
8:10am  -   -   -  4 9 mph 1024.9mb 63f -
8:00am  -   -   -  4 7 mph 1025.2mb 63f -
7:50am 1.3ft 12s 7s 4 7 mph 1025.2mb 63f -
7:40am  -   -   -  4 7 mph 1025.1mb 63f -
7:30am  -   -   -  4 9 mph 1025.1mb - -
7:20am  -   -   -  4 7 mph 1025mb 63f -
7:10am  -   -   -  2 7 mph 1025.1mb 63f -
7:00am  -   -   -  2 4 mph 1025.1mb 63f -
6:50am 1.3ft 12s 6s 2 2 mph 1025.2mb 63f -
6:40am 1.3ft  -  6s 4 7 mph 1025.2mb 63f -
6:30am  -   -   -  4 7 mph 1025.1mb 63f -
6:20am  -   -   -  2 7 mph 1025mb 64f -
6:10am  -   -   -  4 9 mph 1025mb 64f -
6:00am  -   -   -  4 9 mph 1025.1mb 64f -
5:50am 1.6ft 11s 6s 4 9 mph 1025mb 64f -
5:40am  -   -   -  4 7 mph 1025mb 64f -
5:30am  -   -   -  2 7 mph 1024.9mb 64f -
5:20am  -   -   -  4 7 mph 1024.8mb 64f -
5:10am  -   -   -  2 4 mph 1024.8mb 64f -
5:00am  -   -   -  4 7 mph 1024.7mb 64f -
4:50am 1.3ft 12s 6s 4 9 mph 1024.5mb 64f -
4:40am  -   -   -  4 7 mph 1024.4mb 64f -
4:30am  -   -   -  4 7 mph 1024.3mb 64f -
4:20am  -   -   -  4 9 mph 1024.2mb 64f -
4:10am  -   -   -  4 9 mph 1024.4mb 64f -
4:00am  -   -   -  4 9 mph 1024.5mb 64f -
3:50am 1.3ft 11s 6s 4 7 mph 1024.5mb 64f -
3:40am 1.3ft  -  6s 7 9 mph 1024.6mb 64f -
3:30am  -   -   -  7 9 mph 1024.7mb 64f -
3:20am  -   -   -  4 11 mph 1024.9mb 64f -
3:10am  -   -   -  7 9 mph 1024.9mb 64f -
3:00am  -   -   -  4 9 mph 1024.9mb 64f -
2:50am 1.3ft 11s 5s 7 9 mph 1024.9mb 64f -
2:40am  -   -   -  4 7 mph 1024.9mb 64f -
2:30am  -   -   -  4 9 mph 1024.8mb 64f -
2:20am  -   -   -  4 9 mph 1024.8mb 64f -
2:10am  -   -   -  4 9 mph 1024.8mb 64f -
2:00am  -   -   -  7 9 mph 1024.8mb 64f -
1:50am 1.6ft 11s 6s 7 9 mph 1024.7mb 64f -
1:40am 1.6ft  -  6s 4 7 mph 1024.7mb 64f -
1:30am  -   -   -  4 7 mph 1024.7mb 64f -
1:20am  -   -   -  4 7 mph 1024.6mb 64f -
1:10am  -   -   -  4 7 mph 1024.6mb 64f -
1:00am  -   -   -  4 7 mph 1024.6mb 64f -
12:50am 1.6ft 11s 6s 4 9 mph 1024.7mb 64f -
12:40am 1.6ft  -  6s 7 9 mph 1024.8mb 64f -
12:30am  -   -   -  4 7 mph 1024.9mb 64f -
12:20am  -   -   -  4 7 mph 1025mb 64f -
12:10am  -   -   -  4 9 mph 1025.2mb 64f -
12:00am  -   -   -  4 9 mph 1025.1mb 64f -
Wed 01/16 11:50pm 1.3ft 11s 6s 4 9 mph 1025.2mb 64f -
11:40pm  -   -   -  7 11 mph 1025.2mb 64f -
11:30pm  -   -   -  7 9 mph 1025.4mb 64f -
11:20pm  -   -   -  7 9 mph 1025.5mb 64f -
11:10pm  -   -   -  7 9 mph 1025.5mb 63f -
11:00pm  -   -   -  7 9 mph 1025.4mb 63f -
10:50pm 1.3ft 11s 6s 7 9 mph 1025.5mb 63f -
10:40pm  -   -   -  7 11 mph 1025.5mb 63f -
10:30pm  -   -   -  7 9 mph 1025.5mb 63f -
10:20pm  -   -   -  7 9 mph 1025.4mb 63f -
10:10pm  -   -   -  7 9 mph 1025.2mb 63f -
10:00pm  -   -   -  7 11 mph 1025.2mb 63f -
9:50pm 1.6ft 11s 7s 4 11 mph 1025.2mb 63f -
9:40pm 1.6ft  -  7s 4 9 mph 1025mb 63f -
9:30pm  -   -   -  4 9 mph 1024.9mb 63f -
9:20pm  -   -   -  4 7 mph 1024.9mb 63f -
9:10pm  -   -   -  4 9 mph 1024.8mb 63f -
9:00pm  -   -   -  4 9 mph 1024.8mb 63f -
8:50pm 1.6ft 11s 6s 4 9 mph 1024.7mb 63f -
8:40pm 1.6ft  -  6s 4 9 mph 1024.6mb 63f -
8:30pm  -   -   -  7 9 mph 1024.5mb 63f -
8:20pm  -   -   -  7 9 mph 1024.4mb 63f -
8:10pm  -   -   -  7 9 mph 1024.4mb 63f -
8:00pm  -   -   -  7 11 mph 1024.5mb 63f -
7:50pm 1.6ft 11s 7s 7 11 mph 1024.5mb 63f -
7:40pm  -   -   -  7 9 mph 1024.5mb 63f -
7:30pm  -   -   -  7 9 mph 1024.3mb 63f -
7:20pm  -   -   -  7 9 mph 1024.3mb - -
7:10pm  -   -   -  4 9 mph 1024.2mb 63f -
7:00pm  -   -   -  4 9 mph 1024.1mb 63f -
6:50pm 1.6ft 11s 6s 4 9 mph 1024mb 63f -
6:40pm 1.6ft  -  6s 4 7 mph 1024mb 63f -
6:30pm  -   -   -  4 7 mph 1023.8mb 63f -
6:20pm  -   -   -  4 7 mph 1023.6mb 64f -
6:10pm  -   -   -  4 7 mph 1023.5mb 64f -
6:00pm  -   -   -  4 7 mph 1023.4mb 64f -
5:50pm 1.6ft 11s 6s 4 9 mph 1023.5mb 64f -
5:40pm 1.6ft  -  6s 4 7 mph 1023.6mb 64f -
5:30pm  -   -   -  4 9 mph 1023.6mb 64f -
5:20pm  -   -   -  4 7 mph 1023.6mb 64f -
5:10pm  -   -   -  7 9 mph 1023.4mb 64f -
5:00pm  -   -   -  4 9 mph 1023.4mb 64f -
4:50pm 1.6ft 11s 5s 4 9 mph 1023.2mb - -
4:40pm 1.6ft  -  5s 4 9 mph 1023.2mb 65f -
4:30pm  -   -   -  4 9 mph 1023.3mb 65f -
4:20pm  -   -   -  4 9 mph 1023.2mb 65f -
4:10pm  -   -   -  7 9 mph 1023.3mb 65f -
4:00pm  -   -   -  7 11 mph 1023.4mb 65f -
3:50pm 2ft 12s 6s 7 11 mph 1023.3mb 65f -
3:40pm 2ft  -  6s 7 11 mph 1023.4mb - -
3:30pm  -   -   -  9 11 mph 1023.4mb 65f -
3:20pm  -   -   -  9 13 mph 1023.4mb 65f -
3:10pm  -   -   -  7 11 mph 1023.5mb 65f -
3:00pm  -   -   -  7 11 mph 1023.6mb 65f -
2:50pm 2ft 11s 5s 9 13 mph 1023.8mb 65f -
2:40pm  -   -   -  9 13 mph 1023.7mb 65f -
2:30pm  -   -   -  9 13 mph 1023.6mb 65f -
2:20pm  -   -   -  9 11 mph 1023.6mb 65f -
2:10pm  -   -   -  9 13 mph 1023.6mb 65f -
2:00pm  -   -   -  7 11 mph 1023.6mb 65f -
1:50pm 2ft 11s 6s 9 13 mph 1023.7mb 65f -
1:40pm  -   -   -  7 11 mph 1023.8mb 64f -
1:30pm  -   -   -  9 13 mph 1023.9mb 64f -
1:20pm  -   -   -  9 11 mph 1023.9mb 64f -
1:10pm  -   -   -  9 11 mph 1024mb 64f -
1:00pm  -   -   -  9 11 mph 1024.1mb 64f -
12:50pm 2.5ft 11s 6s 9 13 mph 1024.3mb 64f -
12:40pm 2.5ft  -  6s 9 13 mph 1024.4mb 64f -
12:30pm  -   -   -  9 13 mph 1024.5mb - -
12:20pm  -   -   -  9 16 mph 1024.6mb 64f -
12:10pm  -   -   -  9 16 mph 1024.8mb 64f -
12:00pm  -   -   -  9 13 mph 1024.9mb 64f -
11:50am 2ft 11s 5s 9 18 mph 1025.1mb 64f -
11:40am 2ft  -  5s 9 13 mph 1025.2mb 64f -
11:30am  -   -   -  9 13 mph 1025.3mb 64f -
11:20am  -   -   -  11 16 mph 1025.5mb 64f -
11:10am  -   -   -  9 13 mph 1025.7mb 64f -
11:00am  -   -   -  9 13 mph 1025.8mb 64f -
10:50am 2.5ft 11s 6s 9 13 mph 1025.7mb 64f -
10:40am  -   -   -  9 13 mph 1025.7mb 64f -
10:30am  -   -   -  9 13 mph 1025.7mb 64f -
10:20am  -   -   -  9 11 mph 1025.7mb 64f -
10:10am  -   -   -  7 11 mph 1025.8mb 64f -
10:00am  -   -   -  7 13 mph 1025.8mb 64f -
9:50am 2.5ft 11s 6s 7 13 mph 1025.7mb 64f -
9:40am  -   -   -  9 11 mph 1025.6mb 64f -
9:30am  -   -   -  9 11 mph 1025.5mb 64f -
9:20am  -   -   -  9 13 mph 1025.3mb 64f -
9:10am  -   -   -  11 16 mph 1025.2mb 63f -
9:00am  -   -   -  9 16 mph 1025mb 63f -
8:50am 2.5ft 11s 6s 11 13 mph 1024.9mb 63f -
8:40am  -   -   -  11 16 mph 1024.7mb 63f -
8:30am  -   -   -  11 16 mph 1024.8mb 63f -
8:20am  -   -   -  9 13 mph 1024.7mb 63f -
8:10am  -   -   -  9 13 mph 1024.7mb 63f -
8:00am  -   -   -  9 11 mph 1024.6mb 63f -
7:50am 3ft 11s 7s 9 11 mph 1024.6mb 63f -
7:40am  -   -   -  9 13 mph 1024.5mb 63f -
7:30am  -   -   -  9 13 mph 1024.4mb 63f 52f
7:20am  -   -   -  9 11 mph 1024.3mb 63f -
7:10am  -   -   -  9 13 mph 1024.3mb 63f 53f
7:00am  -   -   -  9 11 mph 1024.2mb 64f 53f
6:50am 3.5ft 12s 7s 9 13 mph 1024.1mb 64f 53f
6:40am  -   -   -  9 13 mph 1023.9mb 64f 53f
6:30am  -   -   -  9 13 mph 1023.8mb 64f 53f
6:20am  -   -   -  9 13 mph 1023.7mb 64f 53f
6:10am  -   -   -  11 13 mph 1023.5mb 64f 53f
6:00am  -   -   -  11 16 mph 1023.6mb 64f 53f
5:50am 2.5ft 12s 7s 11 16 mph 1023.5mb 64f 53f
5:40am  -   -   -  11 13 mph 1023.4mb 64f 53f